sensor_id;sensor_type;location;lat;lon;timestamp;pressure;altitude;pressure_sealevel;temperature;humidity
63339;BME280;47485;51.378;-1.342;2023-02-14T00:00:32;101739.03;;;6.49;28.04
63339;BME280;47485;51.378;-1.342;2023-02-14T00:02:59;101731.42;;;6.59;27.87
63339;BME280;47485;51.378;-1.342;2023-02-14T00:05:26;101733.50;;;7.09;27.55
63339;BME280;47485;51.378;-1.342;2023-02-14T00:07:53;101729.88;;;6.61;27.46
63339;BME280;47485;51.378;-1.342;2023-02-14T00:10:20;101730.92;;;7.20;27.93
63339;BME280;47485;51.378;-1.342;2023-02-14T00:12:47;101732.82;;;5.04;29.37
63339;BME280;47485;51.378;-1.342;2023-02-14T00:15:14;101725.45;;;4.78;29.50
63339;BME280;47485;51.378;-1.342;2023-02-14T00:17:41;101728.93;;;6.91;28.38
63339;BME280;47485;51.378;-1.342;2023-02-14T00:20:09;101728.57;;;5.84;28.72
63339;BME280;47485;51.378;-1.342;2023-02-14T00:22:36;101727.77;;;5.38;30.11
63339;BME280;47485;51.378;-1.342;2023-02-14T00:25:03;101725.80;;;3.86;30.07
63339;BME280;47485;51.378;-1.342;2023-02-14T00:27:32;101729.59;;;7.14;29.56
63339;BME280;47485;51.378;-1.342;2023-02-14T00:29:59;101728.58;;;6.19;29.39
63339;BME280;47485;51.378;-1.342;2023-02-14T00:32:26;101723.29;;;7.33;28.63
63339;BME280;47485;51.378;-1.342;2023-02-14T00:34:53;101719.05;;;8.05;28.34
63339;BME280;47485;51.378;-1.342;2023-02-14T00:37:20;101719.99;;;2.39;32.21
63339;BME280;47485;51.378;-1.342;2023-02-14T00:39:46;101718.24;;;5.67;29.81
63339;BME280;47485;51.378;-1.342;2023-02-14T00:42:13;101709.53;;;6.39;29.92
63339;BME280;47485;51.378;-1.342;2023-02-14T00:44:40;101713.37;;;4.36;29.82
63339;BME280;47485;51.378;-1.342;2023-02-14T00:47:06;101711.04;;;6.10;28.99
63339;BME280;47485;51.378;-1.342;2023-02-14T00:49:34;101712.08;;;6.33;29.12
63339;BME280;47485;51.378;-1.342;2023-02-14T00:52:00;101706.45;;;5.35;30.26
63339;BME280;47485;51.378;-1.342;2023-02-14T00:54:27;101708.42;;;5.08;30.16
63339;BME280;47485;51.378;-1.342;2023-02-14T00:56:54;101710.73;;;5.47;29.09
63339;BME280;47485;51.378;-1.342;2023-02-14T00:59:21;101707.44;;;4.43;30.73
63339;BME280;47485;51.378;-1.342;2023-02-14T01:01:48;101705.00;;;3.79;31.23
63339;BME280;47485;51.378;-1.342;2023-02-14T01:04:15;101709.97;;;2.82;32.06
63339;BME280;47485;51.378;-1.342;2023-02-14T01:06:43;101708.62;;;5.52;30.69
63339;BME280;47485;51.378;-1.342;2023-02-14T01:09:09;101706.41;;;6.07;29.74
63339;BME280;47485;51.378;-1.342;2023-02-14T01:11:37;101707.23;;;2.22;32.39
63339;BME280;47485;51.378;-1.342;2023-02-14T01:14:06;101709.68;;;2.51;32.40
63339;BME280;47485;51.378;-1.342;2023-02-14T01:16:34;101713.31;;;2.84;33.50
63339;BME280;47485;51.378;-1.342;2023-02-14T01:19:01;101711.43;;;3.12;33.48
63339;BME280;47485;51.378;-1.342;2023-02-14T01:21:29;101711.57;;;2.18;33.67
63339;BME280;47485;51.378;-1.342;2023-02-14T01:23:58;101711.94;;;2.72;34.04
63339;BME280;47485;51.378;-1.342;2023-02-14T01:26:26;101716.31;;;2.58;34.81
63339;BME280;47485;51.378;-1.342;2023-02-14T01:28:54;101715.96;;;4.09;32.97
63339;BME280;47485;51.378;-1.342;2023-02-14T01:31:23;101720.50;;;3.15;34.47
63339;BME280;47485;51.378;-1.342;2023-02-14T01:33:52;101717.23;;;2.80;34.11
63339;BME280;47485;51.378;-1.342;2023-02-14T01:36:21;101716.59;;;1.42;35.57
63339;BME280;47485;51.378;-1.342;2023-02-14T01:38:51;101719.44;;;1.98;35.61
63339;BME280;47485;51.378;-1.342;2023-02-14T01:41:18;101716.22;;;1.69;35.39
63339;BME280;47485;51.378;-1.342;2023-02-14T01:43:52;101719.28;;;-1.75;39.91
63339;BME280;47485;51.378;-1.342;2023-02-14T01:46:19;101718.48;;;1.74;36.88
63339;BME280;47485;51.378;-1.342;2023-02-14T01:48:47;101718.53;;;2.94;35.18
63339;BME280;47485;51.378;-1.342;2023-02-14T01:51:18;101711.57;;;4.34;32.95
63339;BME280;47485;51.378;-1.342;2023-02-14T01:53:46;101708.26;;;4.74;32.65
63339;BME280;47485;51.378;-1.342;2023-02-14T01:56:18;101715.40;;;3.69;32.73
63339;BME280;47485;51.378;-1.342;2023-02-14T01:58:50;101716.35;;;5.37;32.01
63339;BME280;47485;51.378;-1.342;2023-02-14T02:01:20;101714.30;;;4.98;32.80
63339;BME280;47485;51.378;-1.342;2023-02-14T02:03:50;101710.01;;;2.90;33.50
63339;BME280;47485;51.378;-1.342;2023-02-14T02:06:21;101710.18;;;7.16;31.00
63339;BME280;47485;51.378;-1.342;2023-02-14T02:09:01;101709.70;;;4.15;31.64
63339;BME280;47485;51.378;-1.342;2023-02-14T02:11:33;101707.66;;;6.50;30.22
63339;BME280;47485;51.378;-1.342;2023-02-14T02:14:00;101706.97;;;6.97;29.67
63339;BME280;47485;51.378;-1.342;2023-02-14T02:16:55;101704.51;;;8.65;28.65
63339;BME280;47485;51.378;-1.342;2023-02-14T02:19:53;101700.79;;;6.74;29.37
63339;BME280;47485;51.378;-1.342;2023-02-14T02:22:47;101704.02;;;6.35;29.58
63339;BME280;47485;51.378;-1.342;2023-02-14T02:25:38;101705.61;;;6.82;29.07
63339;BME280;47485;51.378;-1.342;2023-02-14T02:28:28;101708.09;;;4.27;32.96
63339;BME280;47485;51.378;-1.342;2023-02-14T02:31:12;101713.10;;;5.56;31.83
63339;BME280;47485;51.378;-1.342;2023-02-14T02:34:41;101711.54;;;5.74;31.12
63339;BME280;47485;51.378;-1.342;2023-02-14T02:37:23;101712.87;;;5.08;30.64
63339;BME280;47485;51.378;-1.342;2023-02-14T02:40:05;101710.22;;;3.35;32.39
63339;BME280;47485;51.378;-1.342;2023-02-14T02:42:45;101702.72;;;5.60;30.54
63339;BME280;47485;51.378;-1.342;2023-02-14T02:45:22;101706.18;;;5.40;29.90
63339;BME280;47485;51.378;-1.342;2023-02-14T02:47:53;101702.77;;;6.23;29.63
63339;BME280;47485;51.378;-1.342;2023-02-14T02:50:27;101700.44;;;7.72;28.95
63339;BME280;47485;51.378;-1.342;2023-02-14T02:53:01;101702.94;;;7.95;28.44
63339;BME280;47485;51.378;-1.342;2023-02-14T02:55:40;101700.46;;;7.41;28.64
63339;BME280;47485;51.378;-1.342;2023-02-14T02:58:08;101697.61;;;7.17;28.08
63339;BME280;47485;51.378;-1.342;2023-02-14T03:00:34;101697.25;;;7.91;28.31
63339;BME280;47485;51.378;-1.342;2023-02-14T03:03:01;101698.62;;;6.27;28.60
63339;BME280;47485;51.378;-1.342;2023-02-14T03:05:29;101695.54;;;7.71;27.87
63339;BME280;47485;51.378;-1.342;2023-02-14T03:07:57;101695.56;;;7.05;28.53
63339;BME280;47485;51.378;-1.342;2023-02-14T03:10:26;101688.29;;;7.23;28.33
63339;BME280;47485;51.378;-1.342;2023-02-14T03:13:08;101689.55;;;6.95;28.08
63339;BME280;47485;51.378;-1.342;2023-02-14T03:15:50;101695.06;;;6.84;28.75
63339;BME280;47485;51.378;-1.342;2023-02-14T03:18:28;101691.31;;;6.68;28.19
63339;BME280;47485;51.378;-1.342;2023-02-14T03:21:02;101685.18;;;5.47;28.95
63339;BME280;47485;51.378;-1.342;2023-02-14T03:23:38;101690.74;;;5.55;28.94
63339;BME280;47485;51.378;-1.342;2023-02-14T03:26:13;101691.26;;;5.53;29.69
63339;BME280;47485;51.378;-1.342;2023-02-14T03:28:45;101680.48;;;5.86;29.44
63339;BME280;47485;51.378;-1.342;2023-02-14T03:31:18;101682.42;;;7.04;28.20
63339;BME280;47485;51.378;-1.342;2023-02-14T03:33:50;101681.78;;;6.10;28.82
63339;BME280;47485;51.378;-1.342;2023-02-14T03:36:22;101683.89;;;6.81;28.73
63339;BME280;47485;51.378;-1.342;2023-02-14T03:38:56;101692.97;;;4.94;29.41
63339;BME280;47485;51.378;-1.342;2023-02-14T03:41:32;101692.25;;;8.76;27.88
63339;BME280;47485;51.378;-1.342;2023-02-14T03:44:02;101688.76;;;6.64;28.29
63339;BME280;47485;51.378;-1.342;2023-02-14T03:46:35;101685.99;;;6.27;29.04
63339;BME280;47485;51.378;-1.342;2023-02-14T03:49:08;101682.39;;;5.68;29.47
63339;BME280;47485;51.378;-1.342;2023-02-14T03:51:38;101680.51;;;4.31;29.95
63339;BME280;47485;51.378;-1.342;2023-02-14T03:54:08;101681.81;;;6.68;28.43
63339;BME280;47485;51.378;-1.342;2023-02-14T03:56:40;101680.81;;;7.12;27.97
63339;BME280;47485;51.378;-1.342;2023-02-14T03:59:12;101681.83;;;6.07;28.79
63339;BME280;47485;51.378;-1.342;2023-02-14T04:01:44;101677.91;;;4.85;29.16
63339;BME280;47485;51.378;-1.342;2023-02-14T04:04:14;101675.04;;;3.26;31.18
63339;BME280;47485;51.378;-1.342;2023-02-14T04:06:43;101671.50;;;5.32;29.64
63339;BME280;47485;51.378;-1.342;2023-02-14T04:09:10;101675.52;;;6.51;29.09
63339;BME280;47485;51.378;-1.342;2023-02-14T04:11:39;101670.58;;;6.06;28.99
63339;BME280;47485;51.378;-1.342;2023-02-14T04:14:06;101670.47;;;4.95;29.94
63339;BME280;47485;51.378;-1.342;2023-02-14T04:16:33;101665.06;;;4.55;29.54
63339;BME280;47485;51.378;-1.342;2023-02-14T04:19:00;101671.87;;;5.74;28.64
63339;BME280;47485;51.378;-1.342;2023-02-14T04:21:26;101674.20;;;5.30;28.94
63339;BME280;47485;51.378;-1.342;2023-02-14T04:23:53;101675.70;;;5.53;28.43
63339;BME280;47485;51.378;-1.342;2023-02-14T04:26:20;101674.27;;;5.86;28.59
63339;BME280;47485;51.378;-1.342;2023-02-14T04:28:46;101674.07;;;1.92;31.71
63339;BME280;47485;51.378;-1.342;2023-02-14T04:31:13;101673.23;;;2.65;31.33
63339;BME280;47485;51.378;-1.342;2023-02-14T04:33:40;101680.06;;;5.46;28.80
63339;BME280;47485;51.378;-1.342;2023-02-14T04:36:08;101679.60;;;6.26;28.17
63339;BME280;47485;51.378;-1.342;2023-02-14T04:38:34;101682.62;;;5.97;28.30
63339;BME280;47485;51.378;-1.342;2023-02-14T04:41:01;101674.27;;;7.31;27.61
63339;BME280;47485;51.378;-1.342;2023-02-14T04:43:28;101663.79;;;5.68;28.54
63339;BME280;47485;51.378;-1.342;2023-02-14T04:45:55;101663.79;;;3.70;29.95
63339;BME280;47485;51.378;-1.342;2023-02-14T04:48:22;101668.89;;;6.03;28.39
63339;BME280;47485;51.378;-1.342;2023-02-14T04:50:50;101669.47;;;3.96;29.97
63339;BME280;47485;51.378;-1.342;2023-02-14T04:53:17;101662.03;;;5.61;29.24
63339;BME280;47485;51.378;-1.342;2023-02-14T04:55:44;101660.54;;;4.62;29.84
63339;BME280;47485;51.378;-1.342;2023-02-14T04:58:11;101655.91;;;5.37;29.25
63339;BME280;47485;51.378;-1.342;2023-02-14T05:00:37;101656.03;;;5.82;28.86
63339;BME280;47485;51.378;-1.342;2023-02-14T05:03:05;101651.26;;;5.33;29.24
63339;BME280;47485;51.378;-1.342;2023-02-14T05:05:32;101653.01;;;6.52;28.00
63339;BME280;47485;51.378;-1.342;2023-02-14T05:08:00;101653.87;;;4.86;29.13
63339;BME280;47485;51.378;-1.342;2023-02-14T05:10:27;101651.98;;;5.67;28.97
63339;BME280;47485;51.378;-1.342;2023-02-14T05:12:53;101651.84;;;6.70;27.91
63339;BME280;47485;51.378;-1.342;2023-02-14T05:15:20;101645.86;;;3.01;30.77
63339;BME280;47485;51.378;-1.342;2023-02-14T05:17:47;101644.90;;;5.61;29.47
63339;BME280;47485;51.378;-1.342;2023-02-14T05:20:13;101651.48;;;4.50;30.06
63339;BME280;47485;51.378;-1.342;2023-02-14T05:22:40;101657.09;;;3.55;30.38
63339;BME280;47485;51.378;-1.342;2023-02-14T05:25:09;101654.54;;;6.28;29.35
63339;BME280;47485;51.378;-1.342;2023-02-14T05:27:36;101651.01;;;5.70;29.78
63339;BME280;47485;51.378;-1.342;2023-02-14T05:30:03;101645.05;;;5.84;29.06
63339;BME280;47485;51.378;-1.342;2023-02-14T05:32:30;101642.60;;;6.30;29.08
63339;BME280;47485;51.378;-1.342;2023-02-14T05:34:56;101644.59;;;4.34;29.58
63339;BME280;47485;51.378;-1.342;2023-02-14T05:37:23;101653.50;;;4.11;30.16
63339;BME280;47485;51.378;-1.342;2023-02-14T05:39:50;101648.70;;;5.70;28.72
63339;BME280;47485;51.378;-1.342;2023-02-14T05:42:17;101648.30;;;6.31;28.45
63339;BME280;47485;51.378;-1.342;2023-02-14T05:44:44;101647.43;;;6.15;28.86
63339;BME280;47485;51.378;-1.342;2023-02-14T05:47:10;101650.93;;;8.87;27.79
63339;BME280;47485;51.378;-1.342;2023-02-14T05:49:38;101656.52;;;5.70;29.13
63339;BME280;47485;51.378;-1.342;2023-02-14T05:52:04;101658.94;;;3.84;29.99
63339;BME280;47485;51.378;-1.342;2023-02-14T05:54:32;101660.79;;;6.97;28.11
63339;BME280;47485;51.378;-1.342;2023-02-14T05:56:59;101662.59;;;4.96;28.82
63339;BME280;47485;51.378;-1.342;2023-02-14T05:59:25;101658.59;;;6.50;28.77
63339;BME280;47485;51.378;-1.342;2023-02-14T06:01:52;101659.10;;;7.03;28.05
63339;BME280;47485;51.378;-1.342;2023-02-14T06:04:19;101656.75;;;5.94;28.13
63339;BME280;47485;51.378;-1.342;2023-02-14T06:06:50;101659.52;;;6.16;28.65
63339;BME280;47485;51.378;-1.342;2023-02-14T06:09:17;101663.71;;;5.19;28.56
63339;BME280;47485;51.378;-1.342;2023-02-14T06:11:44;101663.53;;;7.09;28.03
63339;BME280;47485;51.378;-1.342;2023-02-14T06:14:11;101667.53;;;6.65;28.72
63339;BME280;47485;51.378;-1.342;2023-02-14T06:16:39;101672.22;;;7.00;28.44
63339;BME280;47485;51.378;-1.342;2023-02-14T06:19:06;101671.94;;;4.07;30.01
63339;BME280;47485;51.378;-1.342;2023-02-14T06:21:34;101672.94;;;7.97;28.16
63339;BME280;47485;51.378;-1.342;2023-02-14T06:24:05;101675.56;;;6.59;28.51
63339;BME280;47485;51.378;-1.342;2023-02-14T06:26:33;101674.07;;;6.37;28.25
63339;BME280;47485;51.378;-1.342;2023-02-14T06:29:00;101677.53;;;6.96;27.88
63339;BME280;47485;51.378;-1.342;2023-02-14T06:31:27;101678.95;;;7.08;28.02
63339;BME280;47485;51.378;-1.342;2023-02-14T06:33:54;101675.12;;;7.63;27.58
63339;BME280;47485;51.378;-1.342;2023-02-14T06:36:21;101673.35;;;6.24;28.10
63339;BME280;47485;51.378;-1.342;2023-02-14T06:38:48;101669.22;;;7.20;27.46
63339;BME280;47485;51.378;-1.342;2023-02-14T06:41:16;101668.48;;;6.31;28.44
63339;BME280;47485;51.378;-1.342;2023-02-14T06:43:44;101669.53;;;6.03;28.43
63339;BME280;47485;51.378;-1.342;2023-02-14T06:46:11;101668.48;;;6.52;27.92
63339;BME280;47485;51.378;-1.342;2023-02-14T06:48:38;101666.82;;;5.14;29.64
63339;BME280;47485;51.378;-1.342;2023-02-14T06:51:05;101665.59;;;5.66;28.49
63339;BME280;47485;51.378;-1.342;2023-02-14T06:53:33;101668.43;;;5.77;28.52
63339;BME280;47485;51.378;-1.342;2023-02-14T06:56:01;101675.47;;;4.00;29.85
63339;BME280;47485;51.378;-1.342;2023-02-14T06:58:28;101672.75;;;5.49;28.35
63339;BME280;47485;51.378;-1.342;2023-02-14T07:00:55;101671.36;;;6.06;28.21
63339;BME280;47485;51.378;-1.342;2023-02-14T07:03:22;101674.50;;;6.28;27.98
63339;BME280;47485;51.378;-1.342;2023-02-14T07:05:50;101674.11;;;5.13;28.13
63339;BME280;47485;51.378;-1.342;2023-02-14T07:08:17;101674.23;;;4.14;28.82
63339;BME280;47485;51.378;-1.342;2023-02-14T07:10:44;101680.39;;;4.40;28.61
63339;BME280;47485;51.378;-1.342;2023-02-14T07:13:11;101681.03;;;5.46;28.52
63339;BME280;47485;51.378;-1.342;2023-02-14T07:15:38;101685.11;;;8.00;27.27
63339;BME280;47485;51.378;-1.342;2023-02-14T07:18:05;101686.02;;;3.25;29.64
63339;BME280;47485;51.378;-1.342;2023-02-14T07:20:34;101688.25;;;6.21;28.68
63339;BME280;47485;51.378;-1.342;2023-02-14T07:23:00;101692.74;;;5.05;29.14
63339;BME280;47485;51.378;-1.342;2023-02-14T07:25:27;101691.58;;;4.60;29.30
63339;BME280;47485;51.378;-1.342;2023-02-14T07:27:54;101695.65;;;4.53;29.56
63339;BME280;47485;51.378;-1.342;2023-02-14T07:30:20;101696.41;;;3.04;30.67
63339;BME280;47485;51.378;-1.342;2023-02-14T07:32:47;101700.04;;;5.02;29.25
63339;BME280;47485;51.378;-1.342;2023-02-14T07:35:14;101696.59;;;3.76;29.88
63339;BME280;47485;51.378;-1.342;2023-02-14T07:37:41;101702.63;;;5.95;29.07
63339;BME280;47485;51.378;-1.342;2023-02-14T07:40:08;101702.87;;;5.42;28.70
63339;BME280;47485;51.378;-1.342;2023-02-14T07:42:35;101705.93;;;5.43;28.45
63339;BME280;47485;51.378;-1.342;2023-02-14T07:45:02;101707.41;;;4.66;28.72
63339;BME280;47485;51.378;-1.342;2023-02-14T07:47:30;101712.18;;;6.81;28.22
63339;BME280;47485;51.378;-1.342;2023-02-14T07:49:56;101716.43;;;6.06;28.47
63339;BME280;47485;51.378;-1.342;2023-02-14T07:52:23;101718.16;;;6.39;28.28
63339;BME280;47485;51.378;-1.342;2023-02-14T07:54:49;101723.51;;;6.92;28.32
63339;BME280;47485;51.378;-1.342;2023-02-14T07:57:16;101721.08;;;6.17;28.16
63339;BME280;47485;51.378;-1.342;2023-02-14T07:59:43;101724.62;;;6.60;28.21
63339;BME280;47485;51.378;-1.342;2023-02-14T08:02:10;101732.55;;;6.16;28.30
63339;BME280;47485;51.378;-1.342;2023-02-14T08:04:38;101730.80;;;6.45;28.14
63339;BME280;47485;51.378;-1.342;2023-02-14T08:07:05;101733.38;;;4.68;29.68
63339;BME280;47485;51.378;-1.342;2023-02-14T08:09:33;101732.47;;;6.34;28.17
63339;BME280;47485;51.378;-1.342;2023-02-14T08:12:01;101730.71;;;6.59;28.68
63339;BME280;47485;51.378;-1.342;2023-02-14T08:14:28;101733.39;;;4.56;29.40
63339;BME280;47485;51.378;-1.342;2023-02-14T08:16:55;101733.59;;;6.42;28.37
63339;BME280;47485;51.378;-1.342;2023-02-14T08:19:22;101731.11;;;3.71;29.57
63339;BME280;47485;51.378;-1.342;2023-02-14T08:21:48;101729.24;;;5.39;28.79
63339;BME280;47485;51.378;-1.342;2023-02-14T08:24:15;101727.60;;;5.20;29.49
63339;BME280;47485;51.378;-1.342;2023-02-14T08:26:42;101721.72;;;4.01;29.61
63339;BME280;47485;51.378;-1.342;2023-02-14T08:29:09;101721.49;;;6.81;28.73
63339;BME280;47485;51.378;-1.342;2023-02-14T08:31:36;101723.60;;;4.46;29.07
63339;BME280;47485;51.378;-1.342;2023-02-14T08:34:04;101724.93;;;6.01;28.56
63339;BME280;47485;51.378;-1.342;2023-02-14T08:36:31;101727.13;;;4.37;29.55
63339;BME280;47485;51.378;-1.342;2023-02-14T08:38:59;101723.14;;;5.38;29.14
63339;BME280;47485;51.378;-1.342;2023-02-14T08:41:26;101723.97;;;6.99;27.94
63339;BME280;47485;51.378;-1.342;2023-02-14T08:43:53;101724.22;;;5.23;28.98
63339;BME280;47485;51.378;-1.342;2023-02-14T08:46:21;101725.79;;;6.49;28.81
63339;BME280;47485;51.378;-1.342;2023-02-14T08:48:49;101732.95;;;5.72;29.31
63339;BME280;47485;51.378;-1.342;2023-02-14T08:51:16;101733.89;;;5.51;30.08
63339;BME280;47485;51.378;-1.342;2023-02-14T08:53:44;101729.73;;;5.63;29.23
63339;BME280;47485;51.378;-1.342;2023-02-14T08:56:13;101726.24;;;7.12;28.51
63339;BME280;47485;51.378;-1.342;2023-02-14T08:58:40;101723.38;;;5.41;28.83
63339;BME280;47485;51.378;-1.342;2023-02-14T09:01:07;101721.68;;;6.42;29.27
63339;BME280;47485;51.378;-1.342;2023-02-14T09:03:34;101721.79;;;6.69;28.69
63339;BME280;47485;51.378;-1.342;2023-02-14T09:06:02;101722.29;;;5.19;28.78
63339;BME280;47485;51.378;-1.342;2023-02-14T09:08:29;101716.07;;;6.91;28.40
63339;BME280;47485;51.378;-1.342;2023-02-14T09:10:56;101717.09;;;6.25;29.29
63339;BME280;47485;51.378;-1.342;2023-02-14T09:13:24;101710.97;;;6.30;28.97
63339;BME280;47485;51.378;-1.342;2023-02-14T09:15:51;101704.50;;;5.36;29.01
63339;BME280;47485;51.378;-1.342;2023-02-14T09:18:18;101707.26;;;5.90;29.43
63339;BME280;47485;51.378;-1.342;2023-02-14T09:20:45;101702.77;;;5.91;28.75
63339;BME280;47485;51.378;-1.342;2023-02-14T09:23:12;101705.82;;;6.70;28.97
63339;BME280;47485;51.378;-1.342;2023-02-14T09:25:40;101703.07;;;6.99;28.97
63339;BME280;47485;51.378;-1.342;2023-02-14T09:28:06;101703.20;;;6.87;29.11
63339;BME280;47485;51.378;-1.342;2023-02-14T09:30:34;101708.53;;;6.90;29.65
63339;BME280;47485;51.378;-1.342;2023-02-14T09:33:01;101710.89;;;6.92;28.88
63339;BME280;47485;51.378;-1.342;2023-02-14T09:35:28;101716.33;;;6.97;28.99
63339;BME280;47485;51.378;-1.342;2023-02-14T09:37:55;101718.55;;;6.95;29.04
63339;BME280;47485;51.378;-1.342;2023-02-14T09:40:22;101717.87;;;6.07;29.32
63339;BME280;47485;51.378;-1.342;2023-02-14T09:42:56;101720.13;;;5.50;30.44
63339;BME280;47485;51.378;-1.342;2023-02-14T09:45:26;101719.30;;;5.48;30.29
63339;BME280;47485;51.378;-1.342;2023-02-14T09:47:56;101715.62;;;7.79;29.34
63339;BME280;47485;51.378;-1.342;2023-02-14T09:50:27;101710.85;;;7.13;29.18
63339;BME280;47485;51.378;-1.342;2023-02-14T09:52:57;101715.02;;;6.27;29.90
63339;BME280;47485;51.378;-1.342;2023-02-14T09:55:37;101706.85;;;6.94;29.83
63339;BME280;47485;51.378;-1.342;2023-02-14T09:58:13;101699.11;;;7.43;29.80
63339;BME280;47485;51.378;-1.342;2023-02-14T10:00:44;101696.01;;;7.50;29.91
63339;BME280;47485;51.378;-1.342;2023-02-14T10:03:49;101701.96;;;5.63;30.61
63339;BME280;47485;51.378;-1.342;2023-02-14T10:06:32;101709.28;;;6.18;30.51
63339;BME280;47485;51.378;-1.342;2023-02-14T10:09:07;101705.84;;;7.22;29.57
63339;BME280;47485;51.378;-1.342;2023-02-14T10:11:37;101705.39;;;4.82;31.50
63339;BME280;47485;51.378;-1.342;2023-02-14T10:14:10;101699.55;;;5.97;31.83
63339;BME280;47485;51.378;-1.342;2023-02-14T10:16:44;101693.04;;;6.09;31.35
63339;BME280;47485;51.378;-1.342;2023-02-14T10:19:17;101688.71;;;5.03;30.87
63339;BME280;47485;51.378;-1.342;2023-02-14T10:21:49;101694.08;;;5.03;32.26
63339;BME280;47485;51.378;-1.342;2023-02-14T10:24:22;101695.94;;;4.65;31.79
63339;BME280;47485;51.378;-1.342;2023-02-14T10:26:56;101695.21;;;6.38;30.84
63339;BME280;47485;51.378;-1.342;2023-02-14T10:29:27;101697.72;;;6.08;32.06
63339;BME280;47485;51.378;-1.342;2023-02-14T10:31:57;101697.77;;;7.81;30.03
63339;BME280;47485;51.378;-1.342;2023-02-14T10:34:31;101700.13;;;5.98;32.86
63339;BME280;47485;51.378;-1.342;2023-02-14T10:37:15;101704.16;;;5.98;33.68
63339;BME280;47485;51.378;-1.342;2023-02-14T10:39:56;101702.72;;;5.65;34.30
63339;BME280;47485;51.378;-1.342;2023-02-14T10:42:35;101704.07;;;2.62;36.75
63339;BME280;47485;51.378;-1.342;2023-02-14T10:45:13;101700.79;;;5.50;33.30
63339;BME280;47485;51.378;-1.342;2023-02-14T10:47:46;101694.11;;;5.55;34.98
63339;BME280;47485;51.378;-1.342;2023-02-14T10:50:20;101695.58;;;4.77;35.79
63339;BME280;47485;51.378;-1.342;2023-02-14T10:52:57;101698.22;;;3.16;36.29
63339;BME280;47485;51.378;-1.342;2023-02-14T10:55:41;101697.80;;;3.50;36.29
63339;BME280;47485;51.378;-1.342;2023-02-14T10:58:12;101692.99;;;4.14;35.18
63339;BME280;47485;51.378;-1.342;2023-02-14T11:00:49;101695.21;;;6.48;33.86
63339;BME280;47485;51.378;-1.342;2023-02-14T11:03:18;101699.44;;;1.13;38.49
63339;BME280;47485;51.378;-1.342;2023-02-14T11:05:47;101694.49;;;3.11;36.47
63339;BME280;47485;51.378;-1.342;2023-02-14T11:08:18;101695.36;;;4.80;35.66
63339;BME280;47485;51.378;-1.342;2023-02-14T11:10:47;101688.16;;;4.87;35.05
63339;BME280;47485;51.378;-1.342;2023-02-14T11:13:27;101686.74;;;3.45;35.63
63339;BME280;47485;51.378;-1.342;2023-02-14T11:15:58;101682.85;;;7.53;33.74
63339;BME280;47485;51.378;-1.342;2023-02-14T11:18:26;101680.49;;;5.36;35.67
63339;BME280;47485;51.378;-1.342;2023-02-14T11:21:06;101677.55;;;3.14;37.87
63339;BME280;47485;51.378;-1.342;2023-02-14T11:23:36;101674.38;;;2.82;37.61
63339;BME280;47485;51.378;-1.342;2023-02-14T11:26:07;101674.54;;;3.14;37.57
63339;BME280;47485;51.378;-1.342;2023-02-14T11:28:50;101669.61;;;4.95;35.52
63339;BME280;47485;51.378;-1.342;2023-02-14T11:31:35;101673.23;;;6.26;34.03
63339;BME280;47485;51.378;-1.342;2023-02-14T11:34:05;101676.43;;;7.56;33.73
63339;BME280;47485;51.378;-1.342;2023-02-14T11:36:42;101673.29;;;2.17;38.83
63339;BME280;47485;51.378;-1.342;2023-02-14T11:39:19;101670.60;;;3.66;37.09
63339;BME280;47485;51.378;-1.342;2023-02-14T11:41:50;101665.71;;;7.43;33.72
63339;BME280;47485;51.378;-1.342;2023-02-14T11:44:20;101663.81;;;5.52;35.25
63339;BME280;47485;51.378;-1.342;2023-02-14T11:46:48;101666.53;;;1.91;37.26
63339;BME280;47485;51.378;-1.342;2023-02-14T11:49:27;101661.38;;;5.20;35.05
63339;BME280;47485;51.378;-1.342;2023-02-14T11:51:57;101658.93;;;7.24;34.53
63339;BME280;47485;51.378;-1.342;2023-02-14T11:54:29;101655.43;;;6.09;33.99
63339;BME280;47485;51.378;-1.342;2023-02-14T11:57:02;101648.43;;;7.80;32.99
63339;BME280;47485;51.378;-1.342;2023-02-14T11:59:34;101646.77;;;3.52;36.28
63339;BME280;47485;51.378;-1.342;2023-02-14T12:02:12;101645.54;;;6.88;33.64
63339;BME280;47485;51.378;-1.342;2023-02-14T12:04:43;101641.64;;;7.90;32.80
63339;BME280;47485;51.378;-1.342;2023-02-14T12:07:15;101644.63;;;3.87;35.34
63339;BME280;47485;51.378;-1.342;2023-02-14T12:09:43;101642.71;;;6.03;34.05
63339;BME280;47485;51.378;-1.342;2023-02-14T12:12:21;101638.99;;;4.54;35.31
63339;BME280;47485;51.378;-1.342;2023-02-14T12:14:49;101635.54;;;5.53;34.71
63339;BME280;47485;51.378;-1.342;2023-02-14T12:17:24;101636.73;;;8.10;33.07
63339;BME280;47485;51.378;-1.342;2023-02-14T12:19:59;101637.47;;;0.02;40.56
63339;BME280;47485;51.378;-1.342;2023-02-14T12:22:33;101624.13;;;5.34;35.01
63339;BME280;47485;51.378;-1.342;2023-02-14T12:25:09;101625.63;;;5.86;34.59
63339;BME280;47485;51.378;-1.342;2023-02-14T12:27:44;101624.19;;;3.96;35.27
63339;BME280;47485;51.378;-1.342;2023-02-14T12:30:16;101621.91;;;5.29;33.78
63339;BME280;47485;51.378;-1.342;2023-02-14T12:32:47;101621.15;;;5.58;34.26
63339;BME280;47485;51.378;-1.342;2023-02-14T12:35:16;101616.49;;;3.93;35.85
63339;BME280;47485;51.378;-1.342;2023-02-14T12:37:53;101615.92;;;4.66;34.40
63339;BME280;47485;51.378;-1.342;2023-02-14T12:40:31;101612.17;;;6.68;33.90
63339;BME280;47485;51.378;-1.342;2023-02-14T12:43:30;101610.88;;;4.70;35.47
63339;BME280;47485;51.378;-1.342;2023-02-14T12:46:12;101612.34;;;4.32;36.20
63339;BME280;47485;51.378;-1.342;2023-02-14T12:48:52;101603.79;;;7.16;33.50
63339;BME280;47485;51.378;-1.342;2023-02-14T12:51:26;101599.06;;;7.20;33.13
63339;BME280;47485;51.378;-1.342;2023-02-14T12:54:03;101593.59;;;4.46;33.61
63339;BME280;47485;51.378;-1.342;2023-02-14T12:56:43;101590.37;;;5.98;34.42
63339;BME280;47485;51.378;-1.342;2023-02-14T12:59:21;101585.04;;;6.99;32.67
63339;BME280;47485;51.378;-1.342;2023-02-14T13:02:01;101585.45;;;7.70;32.34
63339;BME280;47485;51.378;-1.342;2023-02-14T13:05:11;101581.06;;;10.54;29.92
63339;BME280;47485;51.378;-1.342;2023-02-14T13:07:51;101583.93;;;4.38;35.32